sensor_id;sensor_type;location;lat;lon;timestamp;P1;durP1;ratioP1;P2;durP2;ratioP2
58972;SDS011;44750;52.040;7.472;2023-03-15T00:02:21;0.60;;;0.60;;
58972;SDS011;44750;52.040;7.472;2023-03-15T00:07:21;0.75;;;0.75;;
58972;SDS011;44750;52.040;7.472;2023-03-15T00:12:22;1.05;;;0.88;;
58972;SDS011;44750;52.040;7.472;2023-03-15T00:17:22;0.75;;;0.75;;
58972;SDS011;44750;52.040;7.472;2023-03-15T00:22:22;1.05;;;0.95;;
58972;SDS011;44750;52.040;7.472;2023-03-15T00:27:23;2.05;;;0.88;;
58972;SDS011;44750;52.040;7.472;2023-03-15T00:32:23;1.95;;;0.98;;
58972;SDS011;44750;52.040;7.472;2023-03-15T00:37:23;2.53;;;1.30;;
58972;SDS011;44750;52.040;7.472;2023-03-15T00:42:24;0.90;;;0.90;;
58972;SDS011;44750;52.040;7.472;2023-03-15T00:47:24;0.70;;;0.70;;
58972;SDS011;44750;52.040;7.472;2023-03-15T00:52:24;1.70;;;0.70;;
58972;SDS011;44750;52.040;7.472;2023-03-15T00:57:25;1.10;;;0.95;;
58972;SDS011;44750;52.040;7.472;2023-03-15T01:02:25;0.63;;;0.63;;
58972;SDS011;44750;52.040;7.472;2023-03-15T01:07:25;1.17;;;0.85;;
58972;SDS011;44750;52.040;7.472;2023-03-15T01:12:26;10.82;;;1.00;;
58972;SDS011;44750;52.040;7.472;2023-03-15T01:17:30;1.38;;;1.02;;
58972;SDS011;44750;52.040;7.472;2023-03-15T01:22:30;0.60;;;0.60;;
58972;SDS011;44750;52.040;7.472;2023-03-15T01:27:30;0.68;;;0.68;;
58972;SDS011;44750;52.040;7.472;2023-03-15T01:32:31;1.70;;;1.53;;
58972;SDS011;44750;52.040;7.472;2023-03-15T01:37:31;1.10;;;1.02;;
58972;SDS011;44750;52.040;7.472;2023-03-15T01:42:31;1.20;;;0.93;;
58972;SDS011;44750;52.040;7.472;2023-03-15T01:47:32;0.40;;;0.40;;
58972;SDS011;44750;52.040;7.472;2023-03-15T01:52:33;0.40;;;0.40;;
58972;SDS011;44750;52.040;7.472;2023-03-15T02:02:45;0.50;;;0.50;;
58972;SDS011;44750;52.040;7.472;2023-03-15T02:07:50;0.60;;;0.60;;
58972;SDS011;44750;52.040;7.472;2023-03-15T02:12:51;0.80;;;0.80;;
58972;SDS011;44750;52.040;7.472;2023-03-15T02:17:54;0.80;;;0.80;;
58972;SDS011;44750;52.040;7.472;2023-03-15T02:28:00;1.38;;;0.63;;
58972;SDS011;44750;52.040;7.472;2023-03-15T02:33:01;1.42;;;1.25;;
58972;SDS011;44750;52.040;7.472;2023-03-15T02:38:05;0.93;;;0.93;;
58972;SDS011;44750;52.040;7.472;2023-03-15T02:43:07;1.85;;;1.17;;
58972;SDS011;44750;52.040;7.472;2023-03-15T02:48:17;1.27;;;1.10;;
58972;SDS011;44750;52.040;7.472;2023-03-15T02:53:18;1.20;;;1.10;;
58972;SDS011;44750;52.040;7.472;2023-03-15T02:58:19;1.70;;;1.45;;
58972;SDS011;44750;52.040;7.472;2023-03-15T03:03:19;0.90;;;0.90;;
58972;SDS011;44750;52.040;7.472;2023-03-15T03:08:19;1.08;;;1.08;;
58972;SDS011;44750;52.040;7.472;2023-03-15T03:13:19;1.48;;;1.08;;
58972;SDS011;44750;52.040;7.472;2023-03-15T03:18:20;1.38;;;1.27;;
58972;SDS011;44750;52.040;7.472;2023-03-15T03:23:20;1.38;;;1.00;;
58972;SDS011;44750;52.040;7.472;2023-03-15T03:28:21;1.70;;;1.60;;
58972;SDS011;44750;52.040;7.472;2023-03-15T03:33:26;2.78;;;1.20;;
58972;SDS011;44750;52.040;7.472;2023-03-15T03:38:26;0.95;;;0.95;;
58972;SDS011;44750;52.040;7.472;2023-03-15T03:43:26;2.05;;;1.23;;
58972;SDS011;44750;52.040;7.472;2023-03-15T03:48:27;2.00;;;1.50;;
58972;SDS011;44750;52.040;7.472;2023-03-15T03:53:27;1.60;;;1.50;;
58972;SDS011;44750;52.040;7.472;2023-03-15T03:58:27;2.28;;;1.48;;
58972;SDS011;44750;52.040;7.472;2023-03-15T04:03:27;1.13;;;1.02;;
58972;SDS011;44750;52.040;7.472;2023-03-15T04:08:29;1.52;;;1.42;;
58972;SDS011;44750;52.040;7.472;2023-03-15T04:13:29;1.95;;;1.45;;
58972;SDS011;44750;52.040;7.472;2023-03-15T04:18:30;2.58;;;2.00;;
58972;SDS011;44750;52.040;7.472;2023-03-15T04:23:30;2.13;;;1.92;;
58972;SDS011;44750;52.040;7.472;2023-03-15T04:28:30;3.22;;;2.03;;
58972;SDS011;44750;52.040;7.472;2023-03-15T04:33:31;2.03;;;1.52;;
58972;SDS011;44750;52.040;7.472;2023-03-15T04:38:31;2.13;;;1.65;;
58972;SDS011;44750;52.040;7.472;2023-03-15T04:43:32;2.42;;;1.73;;
58972;SDS011;44750;52.040;7.472;2023-03-15T04:48:32;1.20;;;1.10;;
58972;SDS011;44750;52.040;7.472;2023-03-15T04:53:33;2.03;;;1.73;;
58972;SDS011;44750;52.040;7.472;2023-03-15T04:58:33;1.80;;;1.58;;
58972;SDS011;44750;52.040;7.472;2023-03-15T05:03:33;1.60;;;1.50;;
58972;SDS011;44750;52.040;7.472;2023-03-15T05:08:34;2.03;;;1.83;;
58972;SDS011;44750;52.040;7.472;2023-03-15T05:13:34;2.88;;;1.92;;
58972;SDS011;44750;52.040;7.472;2023-03-15T05:18:35;2.55;;;1.25;;
58972;SDS011;44750;52.040;7.472;2023-03-15T05:23:35;1.45;;;1.35;;
58972;SDS011;44750;52.040;7.472;2023-03-15T05:28:35;3.85;;;1.67;;
58972;SDS011;44750;52.040;7.472;2023-03-15T05:33:35;3.75;;;2.10;;
58972;SDS011;44750;52.040;7.472;2023-03-15T05:38:36;2.65;;;1.90;;
58972;SDS011;44750;52.040;7.472;2023-03-15T05:43:36;3.83;;;1.92;;
58972;SDS011;44750;52.040;7.472;2023-03-15T05:48:36;1.38;;;1.27;;
58972;SDS011;44750;52.040;7.472;2023-03-15T05:53:36;6.37;;;2.73;;
58972;SDS011;44750;52.040;7.472;2023-03-15T05:58:37;1.45;;;1.27;;
58972;SDS011;44750;52.040;7.472;2023-03-15T06:03:37;1.88;;;1.23;;
58972;SDS011;44750;52.040;7.472;2023-03-15T06:08:37;2.83;;;1.95;;
58972;SDS011;44750;52.040;7.472;2023-03-15T06:13:37;4.72;;;2.08;;
58972;SDS011;44750;52.040;7.472;2023-03-15T06:18:38;3.13;;;1.40;;
58972;SDS011;44750;52.040;7.472;2023-03-15T06:23:38;3.08;;;2.60;;
58972;SDS011;44750;52.040;7.472;2023-03-15T06:28:38;2.60;;;1.80;;
58972;SDS011;44750;52.040;7.472;2023-03-15T06:33:38;2.22;;;1.48;;
58972;SDS011;44750;52.040;7.472;2023-03-15T06:38:39;5.13;;;2.17;;
58972;SDS011;44750;52.040;7.472;2023-03-15T06:43:40;2.55;;;1.60;;
58972;SDS011;44750;52.040;7.472;2023-03-15T06:48:40;1.40;;;1.30;;
58972;SDS011;44750;52.040;7.472;2023-03-15T06:53:41;3.63;;;1.50;;
58972;SDS011;44750;52.040;7.472;2023-03-15T06:58:41;2.53;;;1.70;;
58972;SDS011;44750;52.040;7.472;2023-03-15T07:03:41;1.97;;;1.77;;
58972;SDS011;44750;52.040;7.472;2023-03-15T07:08:42;2.17;;;1.50;;
58972;SDS011;44750;52.040;7.472;2023-03-15T07:13:42;2.70;;;1.90;;
58972;SDS011;44750;52.040;7.472;2023-03-15T07:18:42;2.08;;;1.88;;
58972;SDS011;44750;52.040;7.472;2023-03-15T07:23:43;2.20;;;1.77;;
58972;SDS011;44750;52.040;7.472;2023-03-15T07:28:43;1.55;;;1.45;;
58972;SDS011;44750;52.040;7.472;2023-03-15T07:33:43;1.92;;;1.10;;
58972;SDS011;44750;52.040;7.472;2023-03-15T07:38:44;2.60;;;2.00;;
58972;SDS011;44750;52.040;7.472;2023-03-15T07:43:44;1.35;;;1.25;;
58972;SDS011;44750;52.040;7.472;2023-03-15T07:48:44;1.70;;;1.60;;
58972;SDS011;44750;52.040;7.472;2023-03-15T07:53:44;3.00;;;1.52;;
58972;SDS011;44750;52.040;7.472;2023-03-15T07:58:45;2.88;;;2.15;;
58972;SDS011;44750;52.040;7.472;2023-03-15T08:03:45;3.00;;;1.52;;
58972;SDS011;44750;52.040;7.472;2023-03-15T08:08:45;4.25;;;1.90;;
58972;SDS011;44750;52.040;7.472;2023-03-15T08:13:45;3.15;;;1.40;;
58972;SDS011;44750;52.040;7.472;2023-03-15T08:18:45;1.60;;;1.50;;
58972;SDS011;44750;52.040;7.472;2023-03-15T08:23:46;1.30;;;1.20;;
58972;SDS011;44750;52.040;7.472;2023-03-15T08:28:46;2.60;;;1.40;;
58972;SDS011;44750;52.040;7.472;2023-03-15T08:33:46;1.20;;;1.10;;
58972;SDS011;44750;52.040;7.472;2023-03-15T08:38:47;1.35;;;1.23;;
58972;SDS011;44750;52.040;7.472;2023-03-15T08:43:47;2.25;;;1.15;;
58972;SDS011;44750;52.040;7.472;2023-03-15T08:48:47;1.30;;;1.20;;
58972;SDS011;44750;52.040;7.472;2023-03-15T08:53:47;1.15;;;0.90;;
58972;SDS011;44750;52.040;7.472;2023-03-15T08:58:48;1.75;;;1.15;;
58972;SDS011;44750;52.040;7.472;2023-03-15T09:03:48;2.37;;;1.20;;
58972;SDS011;44750;52.040;7.472;2023-03-15T09:08:48;1.42;;;1.27;;
58972;SDS011;44750;52.040;7.472;2023-03-15T09:13:48;0.90;;;0.73;;
58972;SDS011;44750;52.040;7.472;2023-03-15T09:18:48;2.03;;;0.85;;
58972;SDS011;44750;52.040;7.472;2023-03-15T09:23:49;1.95;;;1.20;;
58972;SDS011;44750;52.040;7.472;2023-03-15T09:28:49;1.58;;;1.40;;
58972;SDS011;44750;52.040;7.472;2023-03-15T09:33:50;2.83;;;1.40;;
58972;SDS011;44750;52.040;7.472;2023-03-15T09:38:50;1.23;;;1.13;;
58972;SDS011;44750;52.040;7.472;2023-03-15T09:54:51;0.97;;;0.87;;
58972;SDS011;44750;52.040;7.472;2023-03-15T09:59:56;1.83;;;1.00;;
58972;SDS011;44750;52.040;7.472;2023-03-15T10:05:05;2.72;;;1.15;;
58972;SDS011;44750;52.040;7.472;2023-03-15T10:10:14;1.08;;;0.90;;
58972;SDS011;44750;52.040;7.472;2023-03-15T10:20:28;1.70;;;0.88;;
58972;SDS011;44750;52.040;7.472;2023-03-15T10:25:32;0.82;;;0.68;;
58972;SDS011;44750;52.040;7.472;2023-03-15T10:30:35;0.85;;;0.63;;
58972;SDS011;44750;52.040;7.472;2023-03-15T10:35:37;0.88;;;0.68;;
58972;SDS011;44750;52.040;7.472;2023-03-15T10:40:44;1.02;;;0.73;;
58972;SDS011;44750;52.040;7.472;2023-03-15T10:45:45;2.25;;;1.00;;
58972;SDS011;44750;52.040;7.472;2023-03-15T10:51:04;2.63;;;1.02;;
58972;SDS011;44750;52.040;7.472;2023-03-15T10:56:14;0.90;;;0.65;;
58972;SDS011;44750;52.040;7.472;2023-03-15T11:06:23;0.40;;;0.40;;
58972;SDS011;44750;52.040;7.472;2023-03-15T11:11:26;0.68;;;0.60;;
58972;SDS011;44750;52.040;7.472;2023-03-15T11:16:26;1.10;;;0.73;;
58972;SDS011;44750;52.040;7.472;2023-03-15T11:21:33;0.65;;;0.45;;
58972;SDS011;44750;52.040;7.472;2023-03-15T11:26:36;0.52;;;0.52;;
58972;SDS011;44750;52.040;7.472;2023-03-15T11:31:38;2.05;;;0.85;;
58972;SDS011;44750;52.040;7.472;2023-03-15T11:36:44;0.60;;;0.50;;
58972;SDS011;44750;52.040;7.472;2023-03-15T11:41:50;4.18;;;0.60;;
58972;SDS011;44750;52.040;7.472;2023-03-15T11:47:00;2.72;;;0.98;;
58972;SDS011;44750;52.040;7.472;2023-03-15T11:52:07;4.13;;;1.05;;
58972;SDS011;44750;52.040;7.472;2023-03-15T12:02:44;0.43;;;0.40;;
58972;SDS011;44750;52.040;7.472;2023-03-15T12:07:56;0.52;;;0.50;;
58972;SDS011;44750;52.040;7.472;2023-03-15T12:13:05;0.98;;;0.55;;
58972;SDS011;44750;52.040;7.472;2023-03-15T12:18:15;0.55;;;0.30;;
58972;SDS011;44750;52.040;7.472;2023-03-15T12:28:20;4.65;;;0.50;;
58972;SDS011;44750;52.040;7.472;2023-03-15T12:33:25;1.48;;;0.75;;
58972;SDS011;44750;52.040;7.472;2023-03-15T12:38:30;0.47;;;0.47;;
58972;SDS011;44750;52.040;7.472;2023-03-15T12:48:35;0.45;;;0.45;;
58972;SDS011;44750;52.040;7.472;2023-03-15T12:54:06;0.40;;;0.40;;
58972;SDS011;44750;52.040;7.472;2023-03-15T12:59:21;3.42;;;0.40;;
58972;SDS011;44750;52.040;7.472;2023-03-15T13:04:28;0.85;;;0.63;;
58972;SDS011;44750;52.040;7.472;2023-03-15T13:09:36;0.82;;;0.55;;
58972;SDS011;44750;52.040;7.472;2023-03-15T13:20:37;0.40;;;0.40;;
58972;SDS011;44750;52.040;7.472;2023-03-15T13:36:17;0.20;;;0.20;;
58972;SDS011;44750;52.040;7.472;2023-03-15T13:46:22;0.60;;;0.52;;
58972;SDS011;44750;52.040;7.472;2023-03-15T13:56:52;0.40;;;0.40;;
58972;SDS011;44750;52.040;7.472;2023-03-15T14:01:54;0.45;;;0.40;;
58972;SDS011;44750;52.040;7.472;2023-03-15T14:07:14;0.35;;;0.35;;
58972;SDS011;44750;52.040;7.472;2023-03-15T14:12:23;2.83;;;0.65;;
58972;SDS011;44750;52.040;7.472;2023-03-15T14:17:29;0.35;;;0.35;;
58972;SDS011;44750;52.040;7.472;2023-03-15T14:22:30;1.05;;;0.77;;
58972;SDS011;44750;52.040;7.472;2023-03-15T14:27:30;0.57;;;0.38;;
58972;SDS011;44750;52.040;7.472;2023-03-15T14:32:33;0.50;;;0.50;;
58972;SDS011;44750;52.040;7.472;2023-03-15T14:37:39;0.20;;;0.20;;
58972;SDS011;44750;52.040;7.472;2023-03-15T14:42:41;0.45;;;0.45;;
58972;SDS011;44750;52.040;7.472;2023-03-15T14:47:46;1.23;;;0.70;;
58972;SDS011;44750;52.040;7.472;2023-03-15T14:52:49;0.70;;;0.47;;
58972;SDS011;44750;52.040;7.472;2023-03-15T14:57:50;0.95;;;0.40;;
58972;SDS011;44750;52.040;7.472;2023-03-15T15:02:51;0.37;;;0.30;;
58972;SDS011;44750;52.040;7.472;2023-03-15T15:07:57;0.15;;;0.15;;
58972;SDS011;44750;52.040;7.472;2023-03-15T15:13:03;0.43;;;0.30;;
58972;SDS011;44750;52.040;7.472;2023-03-15T15:18:03;0.45;;;0.40;;
58972;SDS011;44750;52.040;7.472;2023-03-15T15:23:04;0.47;;;0.40;;
58972;SDS011;44750;52.040;7.472;2023-03-15T15:28:04;0.28;;;0.25;;
58972;SDS011;44750;52.040;7.472;2023-03-15T15:33:04;0.20;;;0.20;;
58972;SDS011;44750;52.040;7.472;2023-03-15T15:38:11;0.47;;;0.33;;
58972;SDS011;44750;52.040;7.472;2023-03-15T15:43:11;1.27;;;0.57;;
58972;SDS011;44750;52.040;7.472;2023-03-15T15:48:12;0.57;;;0.32;;
58972;SDS011;44750;52.040;7.472;2023-03-15T15:53:15;0.25;;;0.25;;
58972;SDS011;44750;52.040;7.472;2023-03-15T16:03:17;0.30;;;0.30;;
58972;SDS011;44750;52.040;7.472;2023-03-15T16:08:20;0.30;;;0.30;;
58972;SDS011;44750;52.040;7.472;2023-03-15T16:13:23;0.20;;;0.20;;
58972;SDS011;44750;52.040;7.472;2023-03-15T16:18:23;0.25;;;0.25;;
58972;SDS011;44750;52.040;7.472;2023-03-15T16:23:23;0.30;;;0.30;;
58972;SDS011;44750;52.040;7.472;2023-03-15T16:28:24;0.30;;;0.30;;
58972;SDS011;44750;52.040;7.472;2023-03-15T16:33:24;0.90;;;0.75;;
58972;SDS011;44750;52.040;7.472;2023-03-15T16:38:25;0.30;;;0.30;;
58972;SDS011;44750;52.040;7.472;2023-03-15T16:43:29;0.90;;;0.53;;
58972;SDS011;44750;52.040;7.472;2023-03-15T16:48:29;0.30;;;0.30;;
58972;SDS011;44750;52.040;7.472;2023-03-15T16:53:29;0.20;;;0.20;;
58972;SDS011;44750;52.040;7.472;2023-03-15T16:58:30;0.80;;;0.50;;
58972;SDS011;44750;52.040;7.472;2023-03-15T17:03:30;1.03;;;0.93;;
58972;SDS011;44750;52.040;7.472;2023-03-15T17:08:31;2.75;;;0.90;;
58972;SDS011;44750;52.040;7.472;2023-03-15T17:13:31;6.47;;;3.42;;
58972;SDS011;44750;52.040;7.472;2023-03-15T17:18:31;4.30;;;2.75;;
58972;SDS011;44750;52.040;7.472;2023-03-15T17:23:32;9.95;;;2.38;;
58972;SDS011;44750;52.040;7.472;2023-03-15T17:28:32;4.03;;;2.13;;
58972;SDS011;44750;52.040;7.472;2023-03-15T17:33:32;4.45;;;3.05;;
58972;SDS011;44750;52.040;7.472;2023-03-15T17:38:32;1.67;;;1.30;;
58972;SDS011;44750;52.040;7.472;2023-03-15T17:43:33;2.03;;;1.35;;
58972;SDS011;44750;52.040;7.472;2023-03-15T17:48:33;14.90;;;4.32;;
58972;SDS011;44750;52.040;7.472;2023-03-15T17:53:33;7.95;;;3.83;;
58972;SDS011;44750;52.040;7.472;2023-03-15T17:58:33;3.78;;;2.58;;
58972;SDS011;44750;52.040;7.472;2023-03-15T18:03:34;15.00;;;6.17;;
58972;SDS011;44750;52.040;7.472;2023-03-15T18:08:34;4.23;;;1.93;;
58972;SDS011;44750;52.040;7.472;2023-03-15T18:13:34;2.97;;;1.45;;
58972;SDS011;44750;52.040;7.472;2023-03-15T18:18:34;0.75;;;0.75;;
58972;SDS011;44750;52.040;7.472;2023-03-15T18:23:35;1.08;;;0.45;;
58972;SDS011;44750;52.040;7.472;2023-03-15T18:28:35;0.50;;;0.45;;
58972;SDS011;44750;52.040;7.472;2023-03-15T18:33:35;0.77;;;0.53;;
58972;SDS011;44750;52.040;7.472;2023-03-15T18:38:36;2.85;;;0.73;;
58972;SDS011;44750;52.040;7.472;2023-03-15T18:43:37;7.20;;;4.60;;
58972;SDS011;44750;52.040;7.472;2023-03-15T18:48:37;2.53;;;1.58;;
58972;SDS011;44750;52.040;7.472;2023-03-15T18:53:38;2.20;;;1.13;;
58972;SDS011;44750;52.040;7.472;2023-03-15T18:58:43;6.55;;;1.88;;
58972;SDS011;44750;52.040;7.472;2023-03-15T19:03:45;2.17;;;1.30;;
58972;SDS011;44750;52.040;7.472;2023-03-15T19:08:45;1.70;;;1.20;;
58972;SDS011;44750;52.040;7.472;2023-03-15T19:13:45;3.07;;;1.63;;
58972;SDS011;44750;52.040;7.472;2023-03-15T19:18:46;2.00;;;1.38;;
58972;SDS011;44750;52.040;7.472;2023-03-15T19:23:46;1.38;;;0.98;;
58972;SDS011;44750;52.040;7.472;2023-03-15T19:28:46;0.88;;;0.85;;
58972;SDS011;44750;52.040;7.472;2023-03-15T19:33:47;10.52;;;1.70;;
58972;SDS011;44750;52.040;7.472;2023-03-15T19:38:47;5.03;;;1.47;;
58972;SDS011;44750;52.040;7.472;2023-03-15T19:43:47;1.90;;;1.05;;
58972;SDS011;44750;52.040;7.472;2023-03-15T19:48:47;0.60;;;0.60;;
58972;SDS011;44750;52.040;7.472;2023-03-15T19:53:48;2.15;;;1.10;;
58972;SDS011;44750;52.040;7.472;2023-03-15T19:58:48;0.75;;;0.63;;
58972;SDS011;44750;52.040;7.472;2023-03-15T20:03:49;3.70;;;0.90;;
58972;SDS011;44750;52.040;7.472;2023-03-15T20:08:49;1.67;;;1.05;;
58972;SDS011;44750;52.040;7.472;2023-03-15T20:13:52;3.25;;;2.65;;
58972;SDS011;44750;52.040;7.472;2023-03-15T20:18:52;1.27;;;0.90;;
58972;SDS011;44750;52.040;7.472;2023-03-15T20:23:52;2.70;;;0.98;;
58972;SDS011;44750;52.040;7.472;2023-03-15T20:28:53;1.45;;;0.80;;
58972;SDS011;44750;52.040;7.472;2023-03-15T20:33:53;3.50;;;0.98;;
58972;SDS011;44750;52.040;7.472;2023-03-15T20:38:53;2.05;;;0.80;;
58972;SDS011;44750;52.040;7.472;2023-03-15T20:43:53;0.60;;;0.60;;
58972;SDS011;44750;52.040;7.472;2023-03-15T20:48:53;1.15;;;1.05;;
58972;SDS011;44750;52.040;7.472;2023-03-15T20:53:54;1.48;;;1.00;;
58972;SDS011;44750;52.040;7.472;2023-03-15T20:58:54;2.30;;;1.20;;
58972;SDS011;44750;52.040;7.472;2023-03-15T21:03:54;1.55;;;1.17;;
58972;SDS011;44750;52.040;7.472;2023-03-15T21:08:54;1.52;;;1.02;;
58972;SDS011;44750;52.040;7.472;2023-03-15T21:13:55;0.80;;;0.70;;
58972;SDS011;44750;52.040;7.472;2023-03-15T21:18:55;0.73;;;0.73;;
58972;SDS011;44750;52.040;7.472;2023-03-15T21:23:55;1.98;;;1.50;;
58972;SDS011;44750;52.040;7.472;2023-03-15T21:28:55;1.63;;;1.05;;
58972;SDS011;44750;52.040;7.472;2023-03-15T21:33:55;1.67;;;1.20;;
58972;SDS011;44750;52.040;7.472;2023-03-15T21:38:56;2.10;;;1.50;;
58972;SDS011;44750;52.040;7.472;2023-03-15T21:43:56;0.70;;;0.68;;
58972;SDS011;44750;52.040;7.472;2023-03-15T21:48:56;1.30;;;1.17;;
58972;SDS011;44750;52.040;7.472;2023-03-15T21:53:56;1.30;;;1.13;;
58972;SDS011;44750;52.040;7.472;2023-03-15T21:58:57;1.30;;;1.08;;
58972;SDS011;44750;52.040;7.472;2023-03-15T22:03:57;4.10;;;2.05;;
58972;SDS011;44750;52.040;7.472;2023-03-15T22:08:57;1.20;;;1.10;;
58972;SDS011;44750;52.040;7.472;2023-03-15T22:13:57;2.55;;;1.60;;
58972;SDS011;44750;52.040;7.472;2023-03-15T22:18:58;2.75;;;1.63;;
58972;SDS011;44750;52.040;7.472;2023-03-15T22:23:58;1.67;;;1.58;;
58972;SDS011;44750;52.040;7.472;2023-03-15T22:28:58;2.85;;;1.60;;
58972;SDS011;44750;52.040;7.472;2023-03-15T22:33:58;6.23;;;2.70;;
58972;SDS011;44750;52.040;7.472;2023-03-15T22:38:59;3.00;;;1.60;;
58972;SDS011;44750;52.040;7.472;2023-03-15T22:44:00;3.17;;;1.92;;
58972;SDS011;44750;52.040;7.472;2023-03-15T22:49:01;4.53;;;2.37;;
58972;SDS011;44750;52.040;7.472;2023-03-15T22:54:03;6.38;;;2.65;;
58972;SDS011;44750;52.040;7.472;2023-03-15T22:59:04;2.03;;;1.77;;
58972;SDS011;44750;52.040;7.472;2023-03-15T23:04:04;4.28;;;2.00;;
58972;SDS011;44750;52.040;7.472;2023-03-15T23:09:04;5.00;;;2.63;;
58972;SDS011;44750;52.040;7.472;2023-03-15T23:14:04;1.23;;;1.13;;
58972;SDS011;44750;52.040;7.472;2023-03-15T23:19:05;2.65;;;1.52;;
58972;SDS011;44750;52.040;7.472;2023-03-15T23:24:05;1.67;;;1.57;;
58972;SDS011;44750;52.040;7.472;2023-03-15T23:29:06;1.40;;;1.30;;
58972;SDS011;44750;52.040;7.472;2023-03-15T23:34:07;9.02;;;1.88;;
58972;SDS011;44750;52.040;7.472;2023-03-15T23:39:07;2.53;;;1.98;;
58972;SDS011;44750;52.040;7.472;2023-03-15T23:44:07;2.70;;;2.03;;
58972;SDS011;44750;52.040;7.472;2023-03-15T23:49:08;8.30;;;1.80;;
58972;SDS011;44750;52.040;7.472;2023-03-15T23:54:08;4.60;;;2.07;;
58972;SDS011;44750;52.040;7.472;2023-03-15T23:59:08;2.45;;;1.90;;
